createdAt,value
2023-04-29T00:01:01.094Z,7.93
2023-04-29T00:03:32.450Z,8.13
2023-04-29T00:06:01.050Z,7.70
2023-04-29T00:08:29.153Z,8.88
2023-04-29T00:10:57.023Z,11.23
2023-04-29T00:13:26.421Z,8.23
2023-04-29T00:15:54.375Z,7.35
2023-04-29T00:18:22.297Z,7.90
2023-04-29T00:20:50.147Z,11.55
2023-04-29T00:23:18.066Z,9.77
2023-04-29T00:25:45.921Z,9.73
2023-04-29T00:28:13.809Z,12.65
2023-04-29T00:30:43.109Z,10.70
2023-04-29T00:33:11.368Z,8.02
2023-04-29T00:35:39.461Z,12.43
2023-04-29T00:38:07.351Z,9.77
2023-04-29T00:40:35.951Z,9.82
2023-04-29T00:43:03.848Z,8.82
2023-04-29T00:45:32.019Z,11.20
2023-04-29T00:48:01.312Z,8.93
2023-04-29T00:50:29.380Z,8.25
2023-04-29T00:52:57.342Z,12.85
2023-04-29T00:55:26.486Z,9.80
2023-04-29T00:57:54.377Z,8.50
2023-04-29T01:00:22.409Z,8.93
2023-04-29T01:02:51.251Z,9.88
2023-04-29T01:05:20.618Z,10.02
2023-04-29T01:07:59.838Z,12.57
2023-04-29T01:10:30.311Z,14.88
2023-04-29T01:13:07.848Z,10.02
2023-04-29T01:15:42.693Z,17.27
2023-04-29T01:18:17.097Z,11.82
2023-04-29T01:20:47.822Z,12.25
2023-04-29T01:23:15.835Z,9.60
2023-04-29T01:25:45.254Z,13.07
2023-04-29T01:28:36.061Z,13.63
2023-04-29T01:31:10.042Z,13.13
2023-04-29T01:33:45.705Z,12.63
2023-04-29T01:36:22.377Z,11.23
2023-04-29T01:38:57.622Z,11.40
2023-04-29T01:41:36.218Z,11.82
2023-04-29T01:44:18.018Z,11.50
2023-04-29T01:46:51.706Z,9.27
2023-04-29T01:49:22.209Z,14.20
2023-04-29T01:51:50.281Z,12.38
2023-04-29T01:54:18.442Z,12.80
2023-04-29T01:56:48.248Z,16.17
2023-04-29T01:59:23.210Z,14.52
2023-04-29T02:02:06.060Z,15.73
2023-04-29T02:04:36.395Z,12.93
2023-04-29T02:07:04.614Z,13.57
2023-04-29T02:09:32.961Z,13.98
2023-04-29T02:12:09.785Z,15.95
2023-04-29T02:14:38.012Z,16.05
2023-04-29T02:17:06.820Z,15.18
2023-04-29T02:19:36.168Z,13.57
2023-04-29T02:22:04.394Z,15.88
2023-04-29T02:24:32.274Z,14.85
2023-04-29T02:27:00.173Z,14.43
2023-04-29T02:29:31.072Z,19.40
2023-04-29T02:31:59.860Z,19.08
2023-04-29T02:34:27.919Z,18.02
2023-04-29T02:36:55.771Z,14.90
2023-04-29T02:39:23.614Z,19.90
2023-04-29T02:41:57.108Z,19.35
2023-04-29T02:44:25.043Z,15.95
2023-04-29T02:46:54.248Z,16.00
2023-04-29T02:49:22.189Z,17.15
2023-04-29T02:51:51.115Z,18.80
2023-04-29T02:54:19.022Z,23.38
2023-04-29T02:56:47.130Z,18.58
2023-04-29T02:59:14.977Z,18.52
2023-04-29T03:01:43.354Z,17.40
2023-04-29T03:04:15.029Z,20.45
2023-04-29T03:06:43.653Z,19.30
2023-04-29T03:09:13.349Z,16.08
2023-04-29T03:11:41.385Z,20.15
2023-04-29T03:14:09.313Z,20.50
2023-04-29T03:16:37.360Z,20.38
2023-04-29T03:19:06.720Z,23.08
2023-04-29T03:21:35.959Z,21.38
2023-04-29T03:24:03.985Z,18.65
2023-04-29T03:26:35.047Z,21.42
2023-04-29T03:29:04.879Z,18.83
2023-04-29T03:31:34.861Z,20.83
2023-04-29T03:34:02.746Z,23.25
2023-04-29T03:36:33.356Z,22.88
2023-04-29T03:39:06.245Z,23.83
2023-04-29T03:41:34.136Z,27.30
2023-04-29T03:44:02.103Z,23.55
2023-04-29T03:46:31.036Z,23.90
2023-04-29T03:48:59.132Z,25.60
2023-04-29T03:51:28.071Z,26.08
2023-04-29T03:54:06.343Z,26.55
2023-04-29T03:56:34.359Z,27.73
2023-04-29T03:59:02.266Z,27.55
2023-04-29T04:01:31.347Z,24.83
2023-04-29T04:03:59.385Z,30.95
2023-04-29T04:06:27.345Z,27.58
2023-04-29T04:08:55.396Z,26.75
2023-04-29T04:11:29.597Z,30.15
2023-04-29T04:14:00.640Z,20.85
2023-04-29T04:16:28.840Z,31.73
2023-04-29T04:18:56.786Z,30.80
2023-04-29T04:21:25.222Z,27.85
2023-04-29T04:24:00.359Z,28.65
2023-04-29T04:26:31.294Z,32.53
2023-04-29T04:29:11.362Z,31.48
2023-04-29T04:31:47.313Z,31.77
2023-04-29T04:34:16.888Z,33.47
2023-04-29T04:36:46.941Z,29.33
2023-04-29T04:39:15.034Z,28.42
2023-04-29T04:41:44.414Z,32.67
2023-04-29T04:44:13.322Z,29.45
2023-04-29T04:46:57.072Z,31.67
2023-04-29T04:49:37.516Z,32.60
2023-04-29T04:52:05.945Z,34.45
2023-04-29T04:54:34.332Z,30.15
2023-04-29T04:57:10.077Z,31.20
2023-04-29T04:59:37.973Z,35.33
2023-04-29T05:02:05.878Z,32.22
2023-04-29T05:04:33.818Z,37.20
2023-04-29T05:07:01.739Z,32.60
2023-04-29T05:09:35.529Z,34.05
2023-04-29T05:12:03.388Z,32.28
2023-04-29T05:14:34.887Z,34.25
2023-04-29T05:17:02.848Z,33.03
2023-04-29T05:19:30.832Z,32.67
2023-04-29T05:21:58.858Z,31.33
2023-04-29T05:24:27.242Z,34.97
2023-04-29T05:26:55.078Z,34.65
2023-04-29T05:29:22.995Z,33.28
2023-04-29T05:31:58.394Z,39.25
2023-04-29T05:34:26.792Z,37.58
2023-04-29T05:36:54.683Z,34.25
2023-04-29T05:39:23.097Z,31.20
2023-04-29T05:41:59.657Z,32.78
2023-04-29T05:44:36.075Z,33.67
2023-04-29T05:47:05.299Z,37.53
2023-04-29T05:49:33.338Z,32.33
2023-04-29T05:52:06.375Z,36.80
2023-04-29T05:54:39.330Z,36.85
2023-04-29T05:57:08.202Z,36.55
2023-04-29T05:59:36.037Z,33.45
2023-04-29T06:02:07.741Z,30.58
2023-04-29T06:04:37.928Z,30.80
2023-04-29T06:07:26.648Z,34.78
2023-04-29T06:10:12.611Z,36.60
2023-04-29T06:12:43.170Z,34.92
2023-04-29T06:15:12.097Z,33.15
2023-04-29T06:17:41.325Z,35.85
2023-04-29T06:20:10.622Z,35.42
2023-04-29T06:22:40.330Z,33.55
2023-04-29T06:25:09.438Z,34.50
2023-04-29T06:27:49.317Z,38.03
2023-04-29T06:30:19.197Z,30.63
2023-04-29T06:32:48.491Z,36.10
2023-04-29T06:35:16.963Z,35.85
2023-04-29T06:37:50.973Z,32.65
2023-04-29T06:40:44.226Z,30.30
2023-04-29T06:43:26.984Z,30.70
2023-04-29T06:46:34.207Z,29.17
2023-04-29T06:49:07.297Z,33.37
2023-04-29T06:51:36.960Z,28.65
2023-04-29T06:54:05.051Z,25.65
2023-04-29T06:56:32.920Z,26.67
2023-04-29T06:59:00.837Z,28.10
2023-04-29T07:01:28.979Z,25.83
2023-04-29T07:03:56.984Z,28.25
2023-04-29T07:06:26.913Z,27.77
2023-04-29T07:08:56.857Z,30.35
2023-04-29T07:11:26.948Z,27.42
2023-04-29T07:13:54.861Z,26.88
2023-04-29T07:16:26.380Z,30.83
2023-04-29T07:18:54.431Z,32.65
2023-04-29T07:21:22.398Z,28.60
2023-04-29T07:23:51.670Z,29.95
2023-04-29T07:26:19.761Z,33.53
2023-04-29T07:28:47.605Z,35.22
2023-04-29T07:31:16.721Z,28.00
2023-04-29T07:33:46.366Z,26.25
2023-04-29T07:36:14.355Z,30.60
2023-04-29T07:38:42.197Z,33.13
2023-04-29T07:41:11.447Z,26.73
2023-04-29T07:43:42.208Z,27.10
2023-04-29T07:46:10.626Z,28.23
2023-04-29T07:48:39.426Z,28.70
2023-04-29T07:51:08.778Z,27.30
2023-04-29T07:53:36.952Z,24.90
2023-04-29T07:56:07.415Z,24.88
2023-04-29T07:58:37.022Z,20.27
2023-04-29T08:01:09.154Z,24.08
2023-04-29T08:03:40.615Z,21.97
2023-04-29T08:06:09.972Z,21.50
2023-04-29T08:08:38.017Z,21.20
2023-04-29T08:11:06.741Z,18.65
2023-04-29T08:13:36.032Z,22.60
2023-04-29T08:16:03.968Z,18.02
2023-04-29T08:18:31.961Z,17.08
2023-04-29T08:20:59.889Z,17.75
2023-04-29T08:23:27.797Z,17.05
2023-04-29T08:25:56.019Z,19.45
2023-04-29T08:28:24.053Z,19.17
2023-04-29T08:30:53.268Z,17.27
2023-04-29T08:33:21.260Z,18.42
2023-04-29T08:35:49.887Z,17.58
2023-04-29T08:38:17.722Z,19.35
2023-04-29T08:40:47.725Z,18.23
2023-04-29T08:43:15.826Z,16.15
2023-04-29T08:45:44.411Z,15.57
2023-04-29T08:48:14.438Z,17.75
2023-04-29T08:50:43.350Z,17.15
2023-04-29T08:53:12.961Z,16.67
2023-04-29T08:55:45.162Z,18.40
2023-04-29T08:58:14.171Z,17.00
2023-04-29T09:00:44.093Z,18.98
2023-04-29T09:03:21.056Z,17.70
2023-04-29T09:05:53.968Z,18.95
2023-04-29T09:08:23.924Z,19.13
2023-04-29T09:10:52.780Z,21.67
2023-04-29T09:13:28.084Z,22.08
2023-04-29T09:15:56.176Z,21.52
2023-04-29T09:18:44.818Z,24.75
2023-04-29T09:21:19.677Z,20.40
2023-04-29T09:23:50.738Z,28.25
2023-04-29T09:26:18.804Z,27.30
2023-04-29T09:28:47.747Z,24.13
2023-04-29T09:31:15.869Z,24.83
2023-04-29T09:33:55.647Z,30.60
2023-04-29T09:36:37.714Z,30.15
2023-04-29T09:39:11.236Z,35.78
2023-04-29T09:41:45.000Z,33.50
2023-04-29T09:44:12.884Z,32.47
2023-04-29T09:46:40.870Z,36.28
2023-04-29T09:49:26.114Z,37.58
2023-04-29T09:51:55.230Z,34.13
2023-04-29T09:54:24.082Z,35.75
2023-04-29T09:56:53.319Z,36.78
2023-04-29T09:59:22.119Z,45.22
2023-04-29T10:01:51.494Z,40.42
2023-04-29T10:04:20.728Z,50.33
2023-04-29T10:06:52.292Z,57.72
2023-04-29T10:09:21.373Z,58.40
2023-04-29T10:11:50.759Z,54.50
2023-04-29T10:14:20.065Z,58.92
2023-04-29T10:16:50.921Z,58.70
2023-04-29T10:19:26.383Z,53.40
2023-04-29T10:21:59.732Z,55.45
2023-04-29T10:26:58.701Z,53.65
2023-04-29T10:29:29.583Z,55.70
2023-04-29T10:31:59.887Z,50.47
2023-04-29T10:34:29.418Z,57.58
2023-04-29T10:36:59.447Z,55.90
2023-04-29T10:39:37.424Z,54.80
2023-04-29T10:42:07.374Z,52.60
2023-04-29T10:45:16.922Z,52.13
2023-04-29T10:48:18.851Z,50.65
2023-04-29T10:51:05.957Z,47.40
2023-04-29T10:53:35.632Z,51.47
2023-04-29T10:56:11.172Z,47.85
2023-04-29T10:58:42.476Z,45.65
2023-04-29T11:01:12.900Z,38.63
2023-04-29T11:03:58.444Z,40.08
2023-04-29T11:06:40.172Z,33.47
2023-04-29T11:09:12.045Z,35.60
2023-04-29T11:11:58.030Z,36.55
2023-04-29T11:14:27.760Z,33.40
2023-04-29T11:16:58.953Z,38.13
2023-04-29T11:19:31.722Z,33.63
2023-04-29T11:22:13.625Z,32.30
2023-04-29T11:24:53.719Z,38.40
2023-04-29T11:27:25.462Z,32.50
2023-04-29T11:29:58.375Z,28.67
2023-04-29T11:32:26.994Z,30.13
2023-04-29T11:34:55.289Z,30.85
2023-04-29T11:37:25.172Z,27.10
2023-04-29T11:40:01.045Z,24.65
2023-04-29T11:42:28.984Z,26.00
2023-04-29T11:44:59.423Z,24.70
2023-04-29T11:47:29.509Z,27.15
2023-04-29T11:50:04.435Z,24.17
2023-04-29T11:52:32.608Z,25.60
2023-04-29T11:55:01.891Z,21.73
2023-04-29T11:57:29.934Z,22.70
2023-04-29T11:59:59.027Z,23.08
2023-04-29T12:02:30.912Z,24.55
2023-04-29T12:05:01.020Z,20.67
2023-04-29T12:07:29.575Z,25.52
2023-04-29T12:09:57.877Z,27.42
2023-04-29T12:12:28.425Z,20.33
2023-04-29T12:14:56.948Z,22.95
2023-04-29T12:17:25.700Z,23.92
2023-04-29T12:19:53.712Z,21.45
2023-04-29T12:22:21.741Z,19.23
2023-04-29T12:24:50.824Z,22.13
2023-04-29T12:27:19.070Z,20.67
2023-04-29T12:29:48.419Z,22.92
2023-04-29T12:32:18.609Z,18.98
2023-04-29T12:34:47.324Z,23.95
2023-04-29T12:37:16.604Z,18.58
2023-04-29T12:39:45.582Z,18.98
2023-04-29T12:42:17.094Z,21.58
2023-04-29T12:44:48.227Z,20.38
2023-04-29T12:47:17.577Z,16.27
2023-04-29T12:49:46.555Z,14.88
2023-04-29T12:52:14.582Z,15.93
2023-04-29T12:54:43.655Z,14.38
2023-04-29T12:57:12.401Z,13.50
2023-04-29T12:59:41.293Z,16.10
2023-04-29T13:02:10.881Z,15.25
2023-04-29T13:04:40.121Z,13.23
2023-04-29T13:07:08.269Z,12.25
2023-04-29T13:09:38.092Z,10.50
2023-04-29T13:12:09.546Z,10.70
2023-04-29T13:14:37.598Z,10.45
2023-04-29T13:17:06.353Z,11.15
2023-04-29T13:19:50.181Z,12.90
2023-04-29T13:22:19.368Z,9.80
2023-04-29T13:24:47.517Z,8.13
2023-04-29T13:27:15.384Z,9.10
2023-04-29T13:29:43.229Z,8.77
2023-04-29T13:32:11.448Z,6.68
2023-04-29T13:34:43.225Z,9.15
2023-04-29T13:37:11.542Z,6.68
2023-04-29T13:39:39.772Z,7.30
2023-04-29T13:42:08.944Z,6.75
2023-04-29T13:44:49.745Z,8.80
2023-04-29T13:47:25.715Z,8.30
2023-04-29T13:50:16.912Z,10.02
2023-04-29T13:56:07.253Z,11.52
2023-04-29T13:58:43.368Z,9.80
2023-04-29T14:03:20.618Z,10.80
2023-04-29T14:05:50.016Z,11.27
2023-04-29T14:08:17.869Z,12.15
2023-04-29T14:10:45.702Z,11.40
2023-04-29T14:13:13.554Z,14.10
2023-04-29T14:15:41.669Z,15.57
2023-04-29T14:18:10.652Z,15.07
2023-04-29T14:20:39.237Z,12.65
2023-04-29T14:23:08.465Z,9.90
2023-04-29T14:25:36.355Z,8.88
2023-04-29T14:28:04.345Z,12.18
2023-04-29T14:30:32.233Z,12.15
2023-04-29T14:33:00.142Z,12.32
2023-04-29T14:35:27.979Z,14.88
2023-04-29T14:37:55.954Z,14.07
2023-04-29T14:40:25.676Z,12.20
2023-04-29T14:42:53.556Z,8.85
2023-04-29T14:45:21.401Z,10.48
2023-04-29T14:47:49.259Z,10.70
2023-04-29T14:50:17.759Z,10.30
2023-04-29T14:52:45.919Z,10.52
2023-04-29T14:55:13.796Z,10.80
2023-04-29T14:57:43.051Z,10.57
2023-04-29T15:00:12.197Z,9.43
2023-04-29T15:02:40.093Z,6.35
2023-04-29T15:05:08.464Z,8.50
2023-04-29T15:07:36.413Z,9.73
2023-04-29T15:10:06.627Z,9.13
2023-04-29T15:12:34.595Z,8.48
2023-04-29T15:15:04.871Z,7.10
2023-04-29T15:17:32.746Z,9.23
2023-04-29T15:20:00.625Z,8.38
2023-04-29T15:22:28.524Z,12.02
2023-04-29T15:24:56.456Z,6.28
2023-04-29T15:27:24.586Z,11.70
2023-04-29T15:29:54.430Z,7.22
2023-04-29T15:32:24.674Z,10.73
2023-04-29T15:34:52.709Z,8.40
2023-04-29T15:37:21.626Z,6.60
2023-04-29T15:39:50.551Z,12.00
2023-04-29T15:42:18.420Z,8.10
2023-04-29T15:44:46.369Z,7.57
2023-04-29T15:47:14.417Z,10.27
2023-04-29T15:49:44.602Z,7.75
2023-04-29T15:52:12.478Z,8.65
2023-04-29T15:54:41.014Z,9.32
2023-04-29T15:57:08.895Z,14.80
2023-04-29T15:59:36.813Z,8.25
2023-04-29T16:02:10.327Z,9.40
2023-04-29T16:04:38.345Z,10.48
2023-04-29T16:07:07.828Z,12.18
2023-04-29T16:09:36.494Z,10.30
2023-04-29T16:12:04.672Z,9.93
2023-04-29T16:14:32.766Z,10.02
2023-04-29T16:17:01.589Z,11.88
2023-04-29T16:19:29.523Z,11.02
2023-04-29T16:21:57.400Z,11.20
2023-04-29T16:24:26.786Z,10.05
2023-04-29T16:26:54.626Z,14.07
2023-04-29T16:29:22.540Z,12.25
2023-04-29T16:31:50.760Z,10.48
2023-04-29T16:34:18.764Z,9.90
2023-04-29T16:36:46.683Z,8.65
2023-04-29T16:39:14.587Z,12.93
2023-04-29T16:41:43.785Z,10.68
2023-04-29T16:44:11.684Z,13.90
2023-04-29T16:46:39.769Z,8.18
2023-04-29T16:49:07.893Z,10.52
2023-04-29T16:51:36.050Z,11.25
2023-04-29T16:54:04.036Z,10.55
2023-04-29T16:56:31.924Z,9.15
2023-04-29T16:59:01.140Z,9.18
2023-04-29T17:01:29.315Z,8.63
2023-04-29T17:03:57.383Z,7.03
2023-04-29T17:06:25.644Z,6.30
2023-04-29T17:08:53.719Z,5.90
2023-04-29T17:11:21.605Z,5.55
2023-04-29T17:13:50.406Z,10.10
2023-04-29T17:16:19.837Z,8.60
2023-04-29T17:18:47.832Z,5.55
2023-04-29T17:21:15.701Z,7.68
2023-04-29T17:23:43.552Z,7.82
2023-04-29T17:26:11.494Z,6.68
2023-04-29T17:28:39.412Z,6.72
2023-04-29T17:31:07.344Z,7.82
2023-04-29T17:33:39.522Z,4.32
2023-04-29T17:36:07.870Z,11.75
2023-04-29T17:38:35.928Z,9.02
2023-04-29T17:41:04.022Z,5.97
2023-04-29T17:43:35.320Z,10.43
2023-04-29T17:46:03.728Z,10.30
2023-04-29T17:48:32.460Z,7.82
2023-04-29T17:51:01.849Z,5.78
2023-04-29T17:53:30.020Z,6.95
2023-04-29T17:55:57.942Z,9.90
2023-04-29T17:58:28.748Z,7.70
2023-04-29T18:00:57.050Z,5.35
2023-04-29T18:03:27.272Z,5.40
2023-04-29T18:05:55.420Z,3.53
2023-04-29T18:08:24.886Z,6.03
2023-04-29T18:10:52.865Z,4.13
2023-04-29T18:13:20.785Z,5.88
2023-04-29T18:15:48.782Z,5.38
2023-04-29T18:18:16.657Z,8.45
2023-04-29T18:20:44.918Z,2.95
2023-04-29T18:23:14.005Z,5.53
2023-04-29T18:25:43.560Z,4.40
2023-04-29T18:28:23.980Z,4.43
2023-04-29T18:30:53.126Z,7.85
2023-04-29T18:33:21.450Z,5.07
2023-04-29T18:35:49.363Z,4.13
2023-04-29T18:38:17.468Z,8.15
2023-04-29T18:40:46.937Z,4.03
2023-04-29T18:43:18.003Z,5.88
2023-04-29T18:45:46.562Z,9.02
2023-04-29T18:48:15.065Z,4.30
2023-04-29T18:50:43.202Z,8.77
2023-04-29T18:53:11.237Z,6.75
2023-04-29T18:55:39.192Z,4.65
2023-04-29T18:58:09.295Z,4.38
2023-04-29T19:00:37.284Z,3.53
2023-04-29T19:03:05.804Z,4.30
2023-04-29T19:05:33.724Z,6.10
2023-04-29T19:08:01.555Z,5.57
2023-04-29T19:10:29.456Z,9.10
2023-04-29T19:12:57.381Z,6.65
2023-04-29T19:15:28.044Z,4.90
2023-04-29T19:17:56.206Z,7.05
2023-04-29T19:20:24.111Z,4.85
2023-04-29T19:22:52.090Z,4.22
2023-04-29T19:25:20.234Z,5.95
2023-04-29T19:27:48.977Z,6.05
2023-04-29T19:30:17.006Z,6.45
2023-04-29T19:32:47.644Z,3.95
2023-04-29T19:35:15.622Z,6.85
2023-04-29T19:37:44.224Z,6.10
2023-04-29T19:40:12.796Z,5.07
2023-04-29T19:42:40.955Z,5.65
2023-04-29T19:45:10.194Z,6.10
2023-04-29T19:47:38.115Z,3.38
2023-04-29T19:50:07.940Z,7.72
2023-04-29T19:52:35.875Z,6.60
2023-04-29T19:55:04.858Z,7.28
2023-04-29T19:57:33.109Z,5.78
2023-04-29T20:00:01.452Z,6.20
2023-04-29T20:02:29.450Z,7.30
2023-04-29T20:04:57.386Z,5.88
2023-04-29T20:07:26.641Z,5.15
2023-04-29T20:09:55.019Z,3.67
2023-04-29T20:12:23.267Z,5.00
2023-04-29T20:14:51.098Z,3.63
2023-04-29T20:17:18.991Z,5.63
2023-04-29T20:19:46.824Z,8.32
2023-04-29T20:22:14.766Z,5.45
2023-04-29T20:24:44.717Z,10.45
2023-04-29T20:27:12.697Z,5.93
2023-04-29T20:29:40.554Z,19.27
2023-04-29T20:32:08.718Z,5.60
2023-04-29T20:34:37.889Z,4.22
2023-04-29T20:37:06.929Z,6.38
2023-04-29T20:39:35.191Z,5.38
2023-04-29T20:42:05.357Z,5.28
2023-04-29T20:44:34.014Z,5.78
2023-04-29T20:47:01.922Z,4.07
2023-04-29T20:49:29.836Z,4.95
2023-04-29T20:51:58.756Z,5.43
2023-04-29T20:54:26.702Z,5.90
2023-04-29T20:56:54.573Z,4.32
2023-04-29T20:59:23.798Z,5.50
2023-04-29T21:01:51.803Z,4.65
2023-04-29T21:04:21.058Z,9.63
2023-04-29T21:06:50.651Z,5.72
2023-04-29T21:09:19.232Z,5.05
2023-04-29T21:11:47.104Z,6.68
2023-04-29T21:14:15.287Z,7.18
2023-04-29T21:16:44.485Z,7.93
2023-04-29T21:19:12.349Z,7.20
2023-04-29T21:21:40.221Z,6.75
2023-04-29T21:24:08.112Z,6.13
2023-04-29T21:26:35.951Z,6.47
2023-04-29T21:29:04.312Z,6.28
2023-04-29T21:31:32.431Z,6.88
2023-04-29T21:34:01.791Z,6.47
2023-04-29T21:36:29.701Z,6.45
2023-04-29T21:38:57.589Z,6.10
2023-04-29T21:41:27.437Z,9.35
2023-04-29T21:43:57.495Z,9.00
2023-04-29T21:46:26.217Z,10.02
2023-04-29T21:48:54.316Z,9.05
2023-04-29T21:51:23.703Z,9.50
2023-04-29T21:53:52.136Z,10.38
2023-04-29T21:56:21.705Z,9.77
2023-04-29T21:58:49.657Z,7.07
2023-04-29T22:01:27.603Z,7.43
2023-04-29T22:03:57.067Z,6.75
2023-04-29T22:06:26.714Z,7.93
2023-04-29T22:08:54.673Z,8.45
2023-04-29T22:11:22.618Z,10.80
2023-04-29T22:13:50.574Z,6.70
2023-04-29T22:16:19.261Z,7.80
2023-04-29T22:18:48.219Z,13.25
2023-04-29T22:21:16.175Z,8.70
2023-04-29T22:23:45.776Z,7.07
2023-04-29T22:26:13.761Z,9.60
2023-04-29T22:28:41.993Z,10.02
2023-04-29T22:31:10.025Z,8.27
2023-04-29T22:33:37.904Z,7.65
2023-04-29T22:36:05.968Z,6.72
2023-04-29T22:38:34.967Z,9.10
2023-04-29T22:41:04.368Z,9.95
2023-04-29T22:43:32.268Z,8.52
2023-04-29T22:46:00.291Z,8.57
2023-04-29T22:48:28.621Z,7.30
2023-04-29T22:50:59.139Z,5.35
2023-04-29T22:53:27.122Z,6.72
2023-04-29T22:55:56.909Z,8.55
2023-04-29T22:58:27.090Z,6.70
2023-04-29T23:00:57.081Z,7.20
2023-04-29T23:03:25.918Z,11.00
2023-04-29T23:05:58.079Z,5.07
2023-04-29T23:08:26.090Z,5.72
2023-04-29T23:10:54.430Z,4.70
2023-04-29T23:13:22.322Z,5.43
2023-04-29T23:15:52.271Z,7.20
2023-04-29T23:18:20.252Z,7.35
2023-04-29T23:20:48.573Z,9.18
2023-04-29T23:23:16.495Z,6.97
2023-04-29T23:25:45.290Z,6.55
2023-04-29T23:28:13.246Z,8.50
2023-04-29T23:30:41.137Z,8.23
2023-04-29T23:33:10.379Z,5.43
2023-04-29T23:35:38.224Z,6.88
2023-04-29T23:38:06.168Z,5.93
2023-04-29T23:40:34.173Z,8.70
2023-04-29T23:43:02.015Z,3.60
2023-04-29T23:45:29.859Z,6.97
2023-04-29T23:47:57.767Z,7.18
2023-04-29T23:50:27.224Z,4.90
2023-04-29T23:52:55.096Z,5.00
2023-04-29T23:55:23.044Z,3.70
2023-04-29T23:57:50.898Z,6.60
